Time;durP1;ratioP1;P1;durP2;ratioP2;P2;SDS_P1;SDS_P2;PMS_P1;PMS_P2;Temp;Humidity;BMP_temperature;BMP_pressure;BME280_temperature;BME280_humidity;BME280_pressure;Samples;Min_cycle;Max_cycle;Signal;HPM_P1;HPM_P2
2020/12/29 00:01:49;;;;;;;1.77;0.20;;;4.40;99.90;;;;;;5098160;28;20554;-64
2020/12/29 00:04:16;;;;;;;1.70;0.20;;;4.40;99.90;;;;;;5092829;28;20198;-65
2020/12/29 00:06:53;;;;;;;1.70;0.20;;;4.50;99.90;;;;;;5097255;28;20210;-65
2020/12/29 00:09:24;;;;;;;1.70;0.20;;;4.50;99.90;;;;;;5097433;28;20188;-65
2020/12/29 00:11:51;;;;;;;1.70;0.20;;;4.50;99.90;;;;;;5087942;28;20211;-65
2020/12/29 00:14:17;;;;;;;1.70;0.20;;;4.50;99.90;;;;;;5097558;28;20624;-64
2020/12/29 00:16:43;;;;;;;1.73;0.20;;;4.40;99.90;;;;;;5114187;28;20184;-65
2020/12/29 00:19:10;;;;;;;1.70;0.20;;;4.40;99.90;;;;;;5110840;28;20438;-64
2020/12/29 00:21:36;;;;;;;1.70;0.20;;;4.40;99.90;;;;;;5111893;28;20478;-64
2020/12/29 00:24:01;;;;;;;1.70;0.20;;;4.40;99.90;;;;;;5110101;28;20263;-65
2020/12/29 00:26:27;;;;;;;1.70;0.20;;;4.50;99.90;;;;;;5109290;28;20507;-66
2020/12/29 00:28:52;;;;;;;1.70;0.20;;;4.50;99.90;;;;;;5122145;28;22166;-64
2020/12/29 00:31:19;;;;;;;1.70;0.20;;;4.50;99.90;;;;;;5109330;28;20255;-65
2020/12/29 00:33:49;;;;;;;1.73;0.20;;;4.40;99.90;;;;;;5107434;28;20192;-65
2020/12/29 00:36:16;;;;;;;1.70;0.20;;;4.40;99.90;;;;;;5109831;28;20190;-65
2020/12/29 00:38:41;;;;;;;1.70;0.20;;;4.40;99.90;;;;;;5107265;28;20217;-65
2020/12/29 00:41:08;;;;;;;1.80;0.30;;;4.40;99.90;;;;;;5106055;28;20211;-65
2020/12/29 00:43:39;;;;;;;1.70;0.20;;;4.50;99.90;;;;;;5098338;28;20448;-65
2020/12/29 00:46:05;;;;;;;1.77;0.32;;;4.40;99.90;;;;;;5093802;28;20200;-65
2020/12/29 00:48:31;;;;;;;1.70;0.20;;;4.50;99.90;;;;;;5096400;28;20176;-64
2020/12/29 00:51:07;;;;;;;1.70;0.20;;;4.40;99.90;;;;;;5099388;28;20210;-64
2020/12/29 00:53:33;;;;;;;1.70;0.20;;;4.40;99.90;;;;;;5091763;28;20182;-64
2020/12/29 00:56:00;;;;;;;1.70;0.20;;;4.40;99.90;;;;;;5098985;28;20196;-65
2020/12/29 00:58:26;;;;;;;1.70;0.20;;;4.40;99.90;;;;;;5094921;28;20438;-64
2020/12/29 01:00:51;;;;;;;1.70;0.20;;;4.30;99.90;;;;;;5090552;28;20305;-64
2020/12/29 01:03:16;;;;;;;1.77;0.30;;;4.40;99.90;;;;;;5101129;28;20208;-64
2020/12/29 01:05:44;;;;;;;1.70;0.20;;;4.40;99.90;;;;;;5094992;28;20196;-64
2020/12/29 01:08:10;;;;;;;1.70;0.20;;;4.30;99.90;;;;;;5097046;28;20205;-64
2020/12/29 01:10:35;;;;;;;1.70;0.20;;;4.30;99.90;;;;;;5101397;28;20184;-64
2020/12/29 01:13:01;;;;;;;1.70;0.20;;;4.30;99.90;;;;;;5095624;28;20673;-65
2020/12/29 01:15:26;;;;;;;1.70;0.20;;;4.30;99.90;;;;;;5094793;28;20476;-65
2020/12/29 01:17:52;;;;;;;1.70;0.20;;;4.40;99.90;;;;;;5101651;28;20190;-65
2020/12/29 01:20:17;;;;;;;1.70;0.20;;;4.50;99.90;;;;;;5090759;28;20188;-65
2020/12/29 01:22:43;;;;;;;1.70;0.20;;;4.50;99.90;;;;;;5090845;28;20521;-64
2020/12/29 01:25:08;;;;;;;1.70;0.20;;;4.60;99.90;;;;;;5097469;28;20171;-64
2020/12/29 01:27:37;;;;;;;1.70;0.20;;;4.60;99.90;;;;;;5086004;28;20238;-65
2020/12/29 01:30:05;;;;;;;1.70;0.20;;;4.60;99.90;;;;;;5099085;28;20181;-65
2020/12/29 01:32:31;;;;;;;1.70;0.20;;;4.60;99.90;;;;;;5083388;28;20563;-64
2020/12/29 01:34:56;;;;;;;1.70;0.20;;;4.50;99.90;;;;;;5095236;28;20183;-64
2020/12/29 01:37:22;;;;;;;1.70;0.20;;;4.60;99.90;;;;;;5101269;28;20300;-65
2020/12/29 01:39:47;;;;;;;1.70;0.20;;;4.60;99.90;;;;;;5094696;28;20191;-64
2020/12/29 01:42:13;;;;;;;1.70;0.20;;;4.60;99.90;;;;;;5093412;28;20203;-64
2020/12/29 01:44:38;;;;;;;1.90;0.43;;;4.60;99.90;;;;;;5094456;28;20188;-64
2020/12/29 01:47:04;;;;;;;1.70;0.20;;;4.60;99.90;;;;;;5093696;28;20286;-64
2020/12/29 01:49:29;;;;;;;1.70;0.20;;;4.60;99.90;;;;;;5091292;28;20195;-64
2020/12/29 01:51:55;;;;;;;1.70;0.20;;;4.60;99.90;;;;;;5105787;28;20199;-65
2020/12/29 01:54:21;;;;;;;1.80;0.37;;;4.60;99.90;;;;;;5088375;28;20172;-65
2020/12/29 01:56:46;;;;;;;1.70;0.20;;;4.50;99.90;;;;;;5091618;28;20208;-64
2020/12/29 01:59:13;;;;;;;1.70;0.20;;;4.60;99.90;;;;;;5099442;28;20850;-65
2020/12/29 02:01:40;;;;;;;1.70;0.20;;;4.60;99.90;;;;;;5087892;28;20291;-64
2020/12/29 02:04:10;;;;;;;1.73;0.20;;;4.60;99.90;;;;;;5097249;28;20186;-64
2020/12/29 02:06:37;;;;;;;1.70;0.20;;;4.70;99.90;;;;;;5098183;28;20748;-64
2020/12/29 02:09:04;;;;;;;1.73;0.20;;;4.70;99.90;;;;;;5091400;28;20171;-64
2020/12/29 02:11:30;;;;;;;1.73;0.20;;;4.80;99.90;;;;;;5092140;28;20238;-64
2020/12/29 02:13:55;;;;;;;2.13;1.50;;;4.90;99.90;;;;;;5091961;28;20212;-64
2020/12/29 02:16:21;;;;;;;1.70;0.20;;;4.90;99.90;;;;;;5093426;28;20179;-65
2020/12/29 02:18:46;;;;;;;1.70;0.20;;;4.90;99.90;;;;;;5089679;28;20188;-65
2020/12/29 02:21:12;;;;;;;1.90;0.50;;;4.90;99.90;;;;;;5092557;28;20262;-64
2020/12/29 02:23:37;;;;;;;1.73;0.30;;;4.80;99.90;;;;;;5086912;28;20659;-64
2020/12/29 02:26:03;;;;;;;3.40;0.73;;;4.90;99.90;;;;;;5087095;28;20569;-65
2020/12/29 02:28:28;;;;;;;1.80;0.30;;;4.90;99.90;;;;;;5091058;28;20235;-65
2020/12/29 02:30:54;;;;;;;1.70;0.20;;;4.90;99.90;;;;;;5093573;28;21344;-65
2020/12/29 02:33:19;;;;;;;1.70;0.20;;;4.90;99.90;;;;;;5098605;28;20191;-65
2020/12/29 02:35:45;;;;;;;1.70;0.20;;;4.90;99.90;;;;;;5089669;28;20657;-65
2020/12/29 02:38:10;;;;;;;1.70;0.20;;;5.00;99.90;;;;;;5082348;28;20184;-64
2020/12/29 02:40:36;;;;;;;1.73;0.30;;;4.90;99.90;;;;;;5097362;28;20211;-64
2020/12/29 02:43:02;;;;;;;1.70;0.20;;;4.90;99.90;;;;;;5086742;28;20199;-65
2020/12/29 02:45:27;;;;;;;1.75;0.20;;;5.00;99.90;;;;;;5096193;28;20196;-64
2020/12/29 02:47:53;;;;;;;1.70;0.20;;;5.00;99.90;;;;;;5094888;28;20200;-64
2020/12/29 02:50:18;;;;;;;1.90;0.60;;;5.00;99.90;;;;;;5088504;28;20183;-64
2020/12/29 02:52:44;;;;;;;1.70;0.20;;;4.90;99.90;;;;;;5088338;28;20204;-64
2020/12/29 02:55:09;;;;;;;1.80;0.20;;;4.90;99.90;;;;;;5096190;28;20234;-64
2020/12/29 02:57:35;;;;;;;1.70;0.20;;;5.00;99.90;;;;;;5084264;28;20199;-65
2020/12/29 03:00:00;;;;;;;1.70;0.20;;;5.00;99.90;;;;;;5089882;28;20265;-64
2020/12/29 03:02:25;;;;;;;1.70;0.20;;;5.00;99.90;;;;;;5086690;28;20253;-64
2020/12/29 03:04:51;;;;;;;1.70;0.20;;;5.00;99.90;;;;;;5087465;28;20255;-64
2020/12/29 03:07:16;;;;;;;1.70;0.20;;;5.10;99.90;;;;;;5090126;28;20216;-65
2020/12/29 03:09:42;;;;;;;1.70;0.20;;;5.20;99.90;;;;;;5091694;28;20215;-65
2020/12/29 03:12:07;;;;;;;1.70;0.20;;;5.20;99.90;;;;;;5095718;28;20314;-64
2020/12/29 03:14:33;;;;;;;1.73;0.20;;;5.20;99.90;;;;;;5093644;28;20620;-64
2020/12/29 03:16:58;;;;;;;1.90;0.47;;;5.20;99.90;;;;;;5090921;28;20188;-65
2020/12/29 03:19:24;;;;;;;1.70;0.20;;;5.30;99.90;;;;;;5097809;28;20201;-64
2020/12/29 03:21:51;;;;;;;1.70;0.20;;;5.30;99.90;;;;;;5089998;28;20208;-64
2020/12/29 03:24:16;;;;;;;2.33;0.40;;;5.30;99.90;;;;;;5086940;28;20192;-64
2020/12/29 03:26:42;;;;;;;1.70;0.20;;;5.30;99.90;;;;;;5092859;28;21037;-64
2020/12/29 03:29:08;;;;;;;1.70;0.20;;;5.30;99.90;;;;;;5093303;28;20186;-66
2020/12/29 03:31:35;;;;;;;1.70;0.20;;;5.30;99.90;;;;;;5091035;28;20243;-64
2020/12/29 03:34:01;;;;;;;1.73;0.20;;;5.30;99.90;;;;;;5087253;28;20188;-64
2020/12/29 03:36:26;;;;;;;1.70;0.20;;;5.30;99.90;;;;;;5096292;28;20198;-65
2020/12/29 03:38:52;;;;;;;3.50;0.60;;;5.20;99.90;;;;;;5090436;28;20263;-65
2020/12/29 03:41:17;;;;;;;1.80;0.27;;;5.20;99.90;;;;;;5093475;28;21017;-65
2020/12/29 03:43:43;;;;;;;2.87;0.30;;;5.20;99.90;;;;;;5100326;28;20203;-64
2020/12/29 03:46:08;;;;;;;1.70;0.20;;;5.20;99.90;;;;;;5099788;28;20214;-65
2020/12/29 03:48:34;;;;;;;1.70;0.20;;;5.20;99.90;;;;;;5088929;28;20245;-65
2020/12/29 03:50:59;;;;;;;1.70;0.20;;;5.20;99.90;;;;;;5091153;28;20225;-65
2020/12/29 03:53:25;;;;;;;1.70;0.20;;;5.20;99.90;;;;;;5093936;28;20606;-64
2020/12/29 03:55:50;;;;;;;1.70;0.20;;;5.20;99.90;;;;;;5099678;28;20180;-65
2020/12/29 03:58:16;;;;;;;1.77;0.20;;;5.20;99.90;;;;;;5091841;28;20550;-65
2020/12/29 04:00:41;;;;;;;1.80;0.30;;;5.20;99.90;;;;;;5090759;28;20180;-65
2020/12/29 04:03:07;;;;;;;1.70;0.20;;;5.20;99.90;;;;;;5094290;28;20327;-64
2020/12/29 04:05:32;;;;;;;1.70;0.20;;;5.20;99.90;;;;;;5090196;28;20175;-65
2020/12/29 04:07:58;;;;;;;1.70;0.20;;;5.20;99.90;;;;;;5092165;28;20215;-64
2020/12/29 04:10:24;;;;;;;1.70;0.20;;;5.20;99.90;;;;;;5091369;28;20267;-65
2020/12/29 04:12:49;;;;;;;1.70;0.20;;;5.20;99.90;;;;;;5089648;28;20196;-65
2020/12/29 04:15:15;;;;;;;1.70;0.20;;;5.20;99.90;;;;;;5096170;28;20245;-65
2020/12/29 04:17:42;;;;;;;1.70;0.20;;;5.10;99.90;;;;;;5091929;28;20263;-65
2020/12/29 04:20:09;;;;;;;1.75;0.20;;;5.10;99.90;;;;;;5092699;28;20755;-64
2020/12/29 04:22:36;;;;;;;1.70;0.20;;;5.10;99.90;;;;;;5084591;28;20543;-64
2020/12/29 04:25:05;;;;;;;1.70;0.20;;;5.10;99.90;;;;;;5088660;28;20524;-64
2020/12/29 04:27:31;;;;;;;2.17;0.20;;;5.10;99.90;;;;;;5088164;28;20852;-64
2020/12/29 04:29:57;;;;;;;1.73;0.30;;;5.10;99.90;;;;;;5094418;28;20226;-64
2020/12/29 04:32:22;;;;;;;1.70;0.20;;;5.00;99.90;;;;;;5090565;28;20207;-64
2020/12/29 04:34:48;;;;;;;1.70;0.20;;;5.00;99.90;;;;;;5092835;28;20255;-64
2020/12/29 04:37:14;;;;;;;1.70;0.20;;;5.00;99.90;;;;;;5093576;28;20180;-64
2020/12/29 04:39:40;;;;;;;1.70;0.20;;;4.90;99.90;;;;;;5088784;28;20188;-64
2020/12/29 04:42:10;;;;;;;1.70;0.20;;;4.90;99.90;;;;;;5091783;28;20219;-64
2020/12/29 04:44:38;;;;;;;1.95;0.45;;;4.90;99.90;;;;;;5088162;28;20428;-64
2020/12/29 04:47:06;;;;;;;1.77;0.32;;;4.90;99.90;;;;;;5088480;28;20203;-63
2020/12/29 04:49:33;;;;;;;1.77;0.28;;;4.80;99.90;;;;;;5104696;28;20182;-64
2020/12/29 04:52:01;;;;;;;1.73;0.20;;;4.80;99.90;;;;;;5090387;28;20223;-64
2020/12/29 04:54:32;;;;;;;1.70;0.20;;;4.70;99.90;;;;;;5089840;28;20243;-64
2020/12/29 04:56:57;;;;;;;1.90;0.30;;;4.70;99.90;;;;;;5089944;28;20188;-64
2020/12/29 04:59:23;;;;;;;1.70;0.20;;;4.60;99.90;;;;;;5087981;28;20188;-64
2020/12/29 05:01:49;;;;;;;1.80;0.30;;;4.60;99.90;;;;;;5094015;28;20647;-64
2020/12/29 05:04:16;;;;;;;1.73;0.20;;;4.60;99.90;;;;;;5092900;28;20259;-64
2020/12/29 05:06:42;;;;;;;1.75;0.30;;;4.60;99.90;;;;;;5092953;28;20224;-64
2020/12/29 05:09:07;;;;;;;1.90;0.40;;;4.60;99.90;;;;;;5090480;28;20187;-64
2020/12/29 05:11:34;;;;;;;1.70;0.20;;;4.60;99.90;;;;;;5088553;28;20195;-64
2020/12/29 05:14:02;;;;;;;2.95;0.65;;;4.60;99.90;;;;;;5087789;28;20191;-64
2020/12/29 05:16:27;;;;;;;1.80;0.40;;;4.60;99.90;;;;;;5089424;28;20543;-63
2020/12/29 05:18:53;;;;;;;1.70;0.20;;;4.60;99.90;;;;;;5093645;28;20195;-64
2020/12/29 05:21:19;;;;;;;2.07;0.47;;;4.50;99.90;;;;;;5093578;28;20260;-64
2020/12/29 05:23:44;;;;;;;1.90;0.40;;;4.50;99.90;;;;;;5091369;28;20216;-64
2020/12/29 05:26:11;;;;;;;1.70;0.20;;;4.50;99.90;;;;;;5087994;28;20461;-64
2020/12/29 05:28:37;;;;;;;1.75;0.20;;;4.50;99.90;;;;;;5086711;28;20184;-64
2020/12/29 05:31:05;;;;;;;2.30;0.50;;;4.50;99.90;;;;;;5091915;28;20183;-64
2020/12/29 05:33:31;;;;;;;1.90;0.40;;;4.50;99.90;;;;;;5095172;28;20183;-64
2020/12/29 05:36:01;;;;;;;2.00;0.30;;;4.40;99.90;;;;;;5106354;28;20266;-63
2020/12/29 05:38:27;;;;;;;1.70;0.20;;;4.40;99.90;;;;;;5096479;28;20184;-63
2020/12/29 05:40:53;;;;;;;2.43;1.60;;;4.40;99.90;;;;;;5087245;28;20188;-63
2020/12/29 05:43:30;;;;;;;2.00;0.40;;;4.40;99.90;;;;;;5094217;28;20454;-63
2020/12/29 05:45:59;;;;;;;1.83;0.30;;;4.30;99.90;;;;;;5095672;28;20262;-63
2020/12/29 05:48:25;;;;;;;1.75;0.20;;;4.30;99.90;;;;;;5086807;28;20184;-64
2020/12/29 05:50:50;;;;;;;2.10;0.30;;;4.20;99.90;;;;;;5089481;28;20281;-63
2020/12/29 05:53:19;;;;;;;1.90;0.40;;;4.20;99.90;;;;;;5091608;28;20206;-63
2020/12/29 05:55:46;;;;;;;1.80;0.30;;;4.10;99.90;;;;;;5091899;28;20187;-63
2020/12/29 05:58:12;;;;;;;1.77;0.20;;;4.20;99.90;;;;;;5090046;28;20180;-63
2020/12/29 06:00:39;;;;;;;1.73;0.20;;;4.20;99.90;;;;;;5091324;28;20181;-63
2020/12/29 06:03:07;;;;;;;1.80;0.30;;;4.20;99.90;;;;;;5091149;28;20492;-63
2020/12/29 06:05:35;;;;;;;1.77;0.20;;;4.20;99.90;;;;;;5089021;28;20184;-63
2020/12/29 06:08:05;;;;;;;1.80;0.30;;;4.30;99.90;;;;;;5092861;28;20210;-63
2020/12/29 06:10:32;;;;;;;1.80;0.20;;;4.30;99.90;;;;;;5089188;28;20180;-63
2020/12/29 06:13:00;;;;;;;1.70;0.20;;;4.20;99.90;;;;;;5090111;28;20781;-63
2020/12/29 06:15:31;;;;;;;1.95;0.40;;;4.10;99.90;;;;;;5092552;28;20171;-63
2020/12/29 06:18:07;;;;;;;2.20;0.30;;;4.10;99.90;;;;;;5087990;28;20634;-63
2020/12/29 06:20:47;;;;;;;1.80;0.20;;;4.10;99.90;;;;;;5084108;28;20202;-63
2020/12/29 06:23:17;;;;;;;1.90;0.40;;;4.10;99.90;;;;;;5093951;28;20203;-63
2020/12/29 06:25:45;;;;;;;1.70;0.20;;;4.20;99.90;;;;;;5099193;28;20187;-63
2020/12/29 06:28:17;;;;;;;1.70;0.20;;;4.20;99.90;;;;;;5089265;28;20221;-63
2020/12/29 06:30:43;;;;;;;1.70;0.20;;;4.20;99.90;;;;;;5089790;28;20569;-63
2020/12/29 06:33:09;;;;;;;2.73;0.40;;;4.20;99.90;;;;;;5088134;28;20192;-64
2020/12/29 06:35:35;;;;;;;2.80;0.50;;;4.10;99.90;;;;;;5087575;28;20427;-63
2020/12/29 06:38:13;;;;;;;2.10;0.60;;;4.10;99.90;;;;;;5088308;28;20230;-63
2020/12/29 06:40:40;;;;;;;2.10;0.63;;;4.10;99.90;;;;;;5089055;28;20196;-64
2020/12/29 06:43:10;;;;;;;2.08;0.50;;;4.10;99.90;;;;;;5080274;28;20196;-63
2020/12/29 06:45:36;;;;;;;1.77;0.30;;;4.10;99.90;;;;;;5091625;28;20215;-63
2020/12/29 06:48:18;;;;;;;1.73;0.22;;;4.10;99.90;;;;;;5087281;28;20585;-63
2020/12/29 06:50:44;;;;;;;2.10;0.45;;;4.00;99.90;;;;;;5086972;28;20202;-63
2020/12/29 06:53:15;;;;;;;2.00;0.50;;;4.10;99.90;;;;;;5092350;28;20546;-63
2020/12/29 06:55:48;;;;;;;1.90;0.43;;;4.10;99.90;;;;;;5088887;28;20266;-63
2020/12/29 06:58:33;;;;;;;2.45;0.70;;;4.10;99.90;;;;;;5089719;28;20653;-63
2020/12/29 07:01:20;;;;;;;1.90;0.40;;;4.00;99.90;;;;;;5088195;28;20198;-63
2020/12/29 07:03:46;;;;;;;2.13;0.28;;;4.00;99.90;;;;;;5090883;28;20717;-64
2020/12/29 07:06:11;;;;;;;2.63;0.70;;;4.00;99.90;;;;;;5084807;28;20282;-64
2020/12/29 07:08:37;;;;;;;2.63;0.70;;;4.00;99.90;;;;;;5091242;28;20430;-65
2020/12/29 07:11:18;;;;;;;2.63;0.50;;;3.90;99.90;;;;;;5091344;28;20438;-64
2020/12/29 07:13:53;;;;;;;2.00;0.55;;;3.90;99.90;;;;;;5085385;28;20183;-64
2020/12/29 07:16:23;;;;;;;2.60;0.90;;;3.90;99.90;;;;;;5089678;28;20246;-64
2020/12/29 07:18:49;;;;;;;2.55;0.85;;;3.90;99.90;;;;;;5090902;28;20203;-64
2020/12/29 07:21:28;;;;;;;1.90;0.40;;;3.90;99.90;;;;;;5088706;28;20188;-64
2020/12/29 07:23:55;;;;;;;2.70;0.88;;;3.90;99.90;;;;;;5085861;28;20593;-64
2020/12/29 07:26:23;;;;;;;2.30;0.82;;;3.90;99.90;;;;;;5091206;28;20294;-65
2020/12/29 07:28:54;;;;;;;2.88;0.70;;;3.90;99.90;;;;;;5086899;28;20188;-64
2020/12/29 07:31:20;;;;;;;2.65;0.80;;;3.90;99.90;;;;;;5089473;28;20673;-64
2020/12/29 07:34:04;;;;;;;1.80;0.30;;;4.00;99.90;;;;;;5091066;28;20176;-64
2020/12/29 07:36:31;;;;;;;1.73;0.20;;;4.00;99.90;;;;;;5087524;28;20195;-63
2020/12/29 07:38:58;;;;;;;1.83;0.30;;;4.00;99.90;;;;;;5090620;28;20317;-64
2020/12/29 07:41:24;;;;;;;2.90;0.63;;;4.00;99.90;;;;;;5091172;28;20212;-64
2020/12/29 07:43:49;;;;;;;1.77;0.20;;;4.00;99.90;;;;;;5089450;28;20187;-64
2020/12/29 07:46:15;;;;;;;1.77;0.27;;;4.10;99.90;;;;;;5092346;28;20205;-64
2020/12/29 07:48:40;;;;;;;2.67;1.07;;;4.10;99.90;;;;;;5091157;28;20192;-63
2020/12/29 07:51:07;;;;;;;2.10;0.60;;;4.00;99.90;;;;;;5090615;28;20184;-64
2020/12/29 07:53:33;;;;;;;2.15;0.60;;;4.10;99.90;;;;;;5091822;28;20635;-64
2020/12/29 07:55:59;;;;;;;2.73;1.23;;;4.10;99.90;;;;;;5097661;28;20203;-65
2020/12/29 07:58:24;;;;;;;2.30;0.90;;;4.10;99.90;;;;;;5093164;28;20434;-65
2020/12/29 08:00:51;;;;;;;1.70;0.20;;;4.10;99.90;;;;;;5091911;28;20192;-63
2020/12/29 08:03:18;;;;;;;2.33;0.95;;;4.20;99.90;;;;;;5092539;28;20467;-63
2020/12/29 08:05:44;;;;;;;2.00;0.68;;;4.20;99.90;;;;;;5094649;28;20267;-65
2020/12/29 08:08:11;;;;;;;1.80;0.40;;;4.20;99.90;;;;;;5091901;28;20245;-64
2020/12/29 08:10:42;;;;;;;2.10;0.50;;;4.20;99.90;;;;;;5089405;28;20187;-65
2020/12/29 08:13:09;;;;;;;1.90;0.40;;;4.20;99.90;;;;;;5094497;28;20207;-64
2020/12/29 08:15:39;;;;;;;1.70;0.20;;;4.20;99.90;;;;;;5094761;28;20186;-64
2020/12/29 08:18:16;;;;;;;1.80;0.40;;;4.30;99.90;;;;;;5090936;28;20190;-65
2020/12/29 08:20:47;;;;;;;1.98;0.50;;;4.30;99.90;;;;;;5091960;28;20187;-64
2020/12/29 08:23:18;;;;;;;2.35;0.77;;;4.30;99.90;;;;;;5092804;28;20265;-64
2020/12/29 08:26:01;;;;;;;2.63;1.08;;;4.30;99.90;;;;;;5088212;28;20193;-64
2020/12/29 08:28:28;;;;;;;1.90;0.65;;;4.30;99.90;;;;;;5092243;28;20175;-64
2020/12/29 08:30:55;;;;;;;2.30;0.47;;;4.30;99.90;;;;;;5094725;28;20192;-64
2020/12/29 08:33:22;;;;;;;1.77;0.32;;;4.30;99.90;;;;;;5090986;28;20735;-64
2020/12/29 08:35:56;;;;;;;1.70;0.20;;;4.30;99.90;;;;;;5092459;28;20188;-64
2020/12/29 08:38:31;;;;;;;3.08;0.82;;;4.30;99.90;;;;;;5097007;28;20177;-64
2020/12/29 08:41:12;;;;;;;1.75;0.20;;;4.40;99.90;;;;;;5095255;28;20238;-65
2020/12/29 08:43:50;;;;;;;2.40;1.10;;;4.30;99.90;;;;;;5092840;28;20214;-64
2020/12/29 08:46:17;;;;;;;2.42;0.85;;;4.30;99.90;;;;;;5092930;28;20649;-65
2020/12/29 08:48:54;;;;;;;1.70;0.20;;;4.30;99.90;;;;;;5091378;28;20192;-66
2020/12/29 08:51:22;;;;;;;1.90;0.32;;;4.30;99.90;;;;;;5083918;28;21025;-65
2020/12/29 08:53:48;;;;;;;2.25;0.65;;;4.40;99.90;;;;;;5094331;28;20180;-65
2020/12/29 08:56:26;;;;;;;1.90;0.50;;;4.30;99.90;;;;;;5098678;28;20274;-64
2020/12/29 08:58:53;;;;;;;1.80;0.30;;;4.30;99.90;;;;;;5093991;28;20171;-65
2020/12/29 09:01:32;;;;;;;2.20;0.90;;;4.30;99.90;;;;;;5096314;28;20250;-63
2020/12/29 09:04:15;;;;;;;1.70;0.20;;;4.40;99.90;;;;;;5091543;28;20183;-64
2020/12/29 09:06:41;;;;;;;2.10;0.50;;;4.40;99.90;;;;;;5094529;28;20755;-63
2020/12/29 09:09:07;;;;;;;2.40;0.87;;;4.30;99.90;;;;;;5093773;28;20184;-64
2020/12/29 09:11:33;;;;;;;1.70;0.20;;;4.40;99.90;;;;;;5094761;28;20309;-64
2020/12/29 09:14:03;;;;;;;2.40;0.73;;;4.40;99.90;;;;;;5086162;28;20430;-67
2020/12/29 09:16:28;;;;;;;2.47;0.95;;;4.50;99.90;;;;;;5091799;28;20185;-65
2020/12/29 09:18:54;;;;;;;2.33;1.10;;;4.40;99.90;;;;;;5094411;28;20551;-64
2020/12/29 09:21:21;;;;;;;2.40;1.07;;;4.40;99.90;;;;;;5092319;28;20286;-64
2020/12/29 09:23:56;;;;;;;2.25;0.55;;;4.40;99.90;;;;;;5085283;28;20180;-65
2020/12/29 09:26:22;;;;;;;2.85;1.10;;;4.40;99.90;;;;;;5095498;28;20569;-64
2020/12/29 09:28:47;;;;;;;2.20;1.00;;;4.40;99.90;;;;;;5101018;28;20274;-65
2020/12/29 09:31:13;;;;;;;2.30;1.30;;;4.50;99.90;;;;;;5097823;28;20214;-65
2020/12/29 09:33:39;;;;;;;2.27;0.90;;;4.50;99.90;;;;;;5095166;28;20207;-64
2020/12/29 09:36:07;;;;;;;1.70;0.20;;;4.50;99.90;;;;;;5107860;28;20179;-65
2020/12/29 09:38:33;;;;;;;1.70;0.20;;;4.60;99.90;;;;;;5105710;28;20430;-65
2020/12/29 09:41:00;;;;;;;1.70;0.20;;;4.60;99.90;;;;;;5105780;28;20190;-65
2020/12/29 09:43:26;;;;;;;2.40;0.90;;;4.60;99.90;;;;;;5104969;28;20441;-65
2020/12/29 09:45:52;;;;;;;1.80;0.40;;;4.60;99.90;;;;;;5102000;28;20194;-65
2020/12/29 09:48:18;;;;;;;2.17;0.63;;;4.60;99.90;;;;;;5093722;28;20243;-64
2020/12/29 09:50:44;;;;;;;1.80;0.40;;;4.50;99.90;;;;;;5101499;28;20247;-65
2020/12/29 09:53:10;;;;;;;2.00;0.40;;;4.50;99.90;;;;;;5095740;28;20454;-65
2020/12/29 09:55:37;;;;;;;2.57;0.87;;;4.40;99.90;;;;;;5087943;28;20924;-65
2020/12/29 09:58:03;;;;;;;3.45;1.50;;;4.40;99.90;;;;;;5097495;28;20430;-64
2020/12/29 10:00:28;;;;;;;3.10;1.40;;;4.40;99.90;;;;;;5101983;28;20241;-66
2020/12/29 10:02:56;;;;;;;1.90;0.40;;;4.40;99.90;;;;;;5102150;28;20280;-65
2020/12/29 10:05:22;;;;;;;1.73;0.20;;;4.50;99.90;;;;;;5105563;28;20568;-65
2020/12/29 10:07:47;;;;;;;1.90;0.47;;;4.50;99.90;;;;;;5103849;28;20290;-65
2020/12/29 10:10:13;;;;;;;2.47;0.83;;;4.50;99.90;;;;;;5093317;28;20180;-65
2020/12/29 10:12:39;;;;;;;3.40;1.27;;;4.50;99.90;;;;;;5100655;28;20284;-66
2020/12/29 10:15:05;;;;;;;2.33;0.90;;;4.50;99.90;;;;;;5096583;28;20192;-65
2020/12/29 10:17:34;;;;;;;3.38;1.25;;;4.60;99.90;;;;;;5097344;28;20801;-65
2020/12/29 10:19:59;;;;;;;1.73;0.20;;;4.60;99.90;;;;;;5097820;28;20184;-66
2020/12/29 10:22:28;;;;;;;1.80;0.40;;;4.70;99.90;;;;;;5095548;28;20278;-65
2020/12/29 10:24:54;;;;;;;3.88;1.20;;;4.70;99.90;;;;;;5096510;28;20192;-63
2020/12/29 10:27:19;;;;;;;3.37;2.10;;;4.70;99.90;;;;;;5100360;28;20195;-64
2020/12/29 10:29:45;;;;;;;1.70;0.20;;;4.70;99.90;;;;;;5101476;28;21012;-64
2020/12/29 10:32:10;;;;;;;2.10;0.60;;;4.80;99.90;;;;;;5097483;28;20208;-63
2020/12/29 10:34:36;;;;;;;2.30;0.60;;;4.80;99.90;;;;;;5100653;28;20208;-64
2020/12/29 10:37:01;;;;;;;3.27;1.23;;;4.90;99.90;;;;;;5100127;28;20550;-64
2020/12/29 10:39:27;;;;;;;2.97;1.30;;;4.90;99.90;;;;;;5101049;28;20562;-65
2020/12/29 10:41:52;;;;;;;2.93;0.50;;;5.00;99.90;;;;;;5100890;28;20207;-63
2020/12/29 10:44:18;;;;;;;2.60;0.77;;;5.00;99.90;;;;;;5101844;28;20246;-64
2020/12/29 10:46:47;;;;;;;1.90;0.40;;;5.10;99.90;;;;;;5103963;28;20288;-63
2020/12/29 10:49:15;;;;;;;1.90;0.50;;;5.10;99.90;;;;;;5104124;28;20219;-64
2020/12/29 10:51:40;;;;;;;1.73;0.20;;;5.10;99.90;;;;;;5101532;28;20238;-64
2020/12/29 10:54:06;;;;;;;2.23;0.77;;;5.10;99.90;;;;;;5083019;22;20302;-60
2020/12/29 10:56:32;;;;;;;2.40;1.10;;;5.10;99.90;;;;;;5031082;28;20197;-60
2020/12/29 10:58:57;;;;;;;2.30;0.90;;;5.10;99.90;;;;;;5028807;28;20600;-60
2020/12/29 11:01:24;;;;;;;1.80;0.30;;;5.10;99.90;;;;;;5031615;28;20193;-60
2020/12/29 11:03:51;;;;;;;1.90;0.40;;;5.10;99.90;;;;;;5044964;28;20678;-61
2020/12/29 11:06:18;;;;;;;3.10;1.20;;;5.20;99.90;;;;;;5051877;28;20219;-60
2020/12/29 11:08:44;;;;;;;1.75;0.20;;;5.20;99.90;;;;;;5064478;28;20365;-61
2020/12/29 11:11:11;;;;;;;2.50;1.23;;;5.20;99.90;;;;;;5047647;28;20182;-60
2020/12/29 11:13:37;;;;;;;2.80;1.35;;;5.10;99.90;;;;;;5049037;28;20287;-61
2020/12/29 11:16:02;;;;;;;1.80;0.30;;;5.10;99.90;;;;;;5051700;28;20213;-61
2020/12/29 11:18:28;;;;;;;2.87;1.40;;;5.20;99.90;;;;;;5050421;28;20228;-61
2020/12/29 11:20:54;;;;;;;1.77;0.30;;;5.20;99.90;;;;;;5052457;28;20192;-60
2020/12/29 11:23:20;;;;;;;3.72;1.92;;;5.10;99.90;;;;;;5048588;28;20205;-61
2020/12/29 11:25:45;;;;;;;1.70;0.20;;;5.10;99.90;;;;;;5049376;28;20272;-61
2020/12/29 11:28:11;;;;;;;1.70;0.20;;;5.20;99.90;;;;;;5046592;28;20205;-60
2020/12/29 11:30:37;;;;;;;2.10;0.50;;;5.20;99.90;;;;;;5046792;28;20188;-60
2020/12/29 11:33:03;;;;;;;2.10;0.88;;;5.20;99.90;;;;;;5053665;28;20193;-61
2020/12/29 11:35:28;;;;;;;4.90;2.30;;;5.20;99.90;;;;;;5052954;28;20189;-60
2020/12/29 11:37:54;;;;;;;1.70;0.20;;;5.30;99.90;;;;;;5048898;28;20241;-60
2020/12/29 11:40:19;;;;;;;2.20;0.67;;;5.30;99.90;;;;;;5055445;28;20184;-60
2020/12/29 11:42:45;;;;;;;1.80;0.40;;;5.40;99.90;;;;;;5058337;28;20240;-61
2020/12/29 11:45:11;;;;;;;1.87;0.63;;;5.50;99.90;;;;;;5070964;28;20221;-61
2020/12/29 11:47:36;;;;;;;1.73;0.20;;;5.40;99.90;;;;;;5074473;28;20214;-61
2020/12/29 11:50:02;;;;;;;2.10;0.60;;;5.60;99.90;;;;;;5068432;28;20213;-61
2020/12/29 11:52:28;;;;;;;1.70;0.20;;;5.60;99.90;;;;;;5069044;28;20247;-60
2020/12/29 11:54:53;;;;;;;2.37;1.10;;;5.70;99.90;;;;;;5064155;28;20494;-61
2020/12/29 11:57:19;;;;;;;1.70;0.20;;;5.70;99.90;;;;;;5059662;28;20200;-61
2020/12/29 11:59:44;;;;;;;1.70;0.20;;;5.70;99.90;;;;;;5045032;28;20652;-60
2020/12/29 12:02:10;;;;;;;1.90;0.50;;;5.80;99.90;;;;;;5045246;28;20303;-61
2020/12/29 12:04:35;;;;;;;2.07;0.53;;;5.80;99.90;;;;;;5050229;28;20212;-61
2020/12/29 12:07:04;;;;;;;2.53;1.50;;;5.80;99.90;;;;;;5054145;28;20217;-61
2020/12/29 12:09:30;;;;;;;1.73;0.20;;;5.90;99.90;;;;;;5049219;28;20185;-60
2020/12/29 12:11:55;;;;;;;1.90;0.40;;;5.80;99.90;;;;;;5050337;28;20264;-61
2020/12/29 12:14:21;;;;;;;1.77;0.20;;;5.80;99.90;;;;;;5055245;28;20577;-60
2020/12/29 12:16:46;;;;;;;1.80;0.30;;;5.70;99.90;;;;;;5051232;28;20193;-60
2020/12/29 12:19:12;;;;;;;1.70;0.20;;;5.70;99.90;;;;;;5051604;28;20216;-61
2020/12/29 12:21:37;;;;;;;1.80;0.20;;;5.60;99.90;;;;;;5054097;28;20599;-61
2020/12/29 12:24:03;;;;;;;2.97;0.93;;;5.50;99.90;;;;;;5046205;28;20288;-61
2020/12/29 12:26:29;;;;;;;2.10;0.70;;;5.60;99.90;;;;;;5043506;28;20254;-61
2020/12/29 12:28:55;;;;;;;1.73;0.30;;;5.50;99.90;;;;;;5052686;28;20189;-61
2020/12/29 12:31:21;;;;;;;1.80;0.38;;;5.40;99.90;;;;;;5052573;28;20199;-61
2020/12/29 12:33:47;;;;;;;3.30;1.30;;;5.50;99.90;;;;;;5051423;28;20695;-61
2020/12/29 12:36:13;;;;;;;2.40;0.57;;;5.40;99.90;;;;;;5049931;28;20178;-61
2020/12/29 12:38:46;;;;;;;1.70;0.20;;;5.40;99.90;;;;;;5045463;28;20196;-60
2020/12/29 12:41:11;;;;;;;1.80;0.40;;;5.50;99.90;;;;;;5045982;28;20653;-61
2020/12/29 12:43:38;;;;;;;3.53;1.30;;;5.40;99.90;;;;;;5054121;28;20227;-61
2020/12/29 12:46:03;;;;;;;2.78;0.95;;;5.40;99.90;;;;;;5055614;28;20250;-61
2020/12/29 12:48:29;;;;;;;1.85;0.43;;;5.50;99.90;;;;;;5050449;28;20181;-61
2020/12/29 12:50:56;;;;;;;1.77;0.27;;;5.40;99.90;;;;;;5051412;28;20205;-61
2020/12/29 12:53:21;;;;;;;1.80;0.40;;;5.40;99.90;;;;;;5052092;28;20272;-61
2020/12/29 12:55:47;;;;;;;4.00;1.00;;;5.40;99.90;;;;;;5051910;28;20256;-61
2020/12/29 12:58:12;;;;;;;2.43;0.87;;;5.40;99.90;;;;;;5050982;28;20193;-61